sensor_id;sensor_type;location;lat;lon;timestamp;P1;durP1;ratioP1;P2;durP2;ratioP2
15049;SDS011;7622;42.724;23.250;2022-12-11T00:02:19;10.50;;;8.17;;
15049;SDS011;7622;42.724;23.250;2022-12-11T00:04:46;10.10;;;7.87;;
15049;SDS011;7622;42.724;23.250;2022-12-11T00:07:14;10.63;;;8.00;;
15049;SDS011;7622;42.724;23.250;2022-12-11T00:09:41;14.97;;;8.93;;
15049;SDS011;7622;42.724;23.250;2022-12-11T00:12:07;9.90;;;8.13;;
15049;SDS011;7622;42.724;23.250;2022-12-11T00:14:34;14.77;;;9.07;;
15049;SDS011;7622;42.724;23.250;2022-12-11T00:17:01;12.20;;;8.80;;
15049;SDS011;7622;42.724;23.250;2022-12-11T00:19:28;18.00;;;12.20;;
15049;SDS011;7622;42.724;23.250;2022-12-11T00:21:54;19.23;;;13.50;;
15049;SDS011;7622;42.724;23.250;2022-12-11T00:24:23;20.70;;;13.37;;
15049;SDS011;7622;42.724;23.250;2022-12-11T00:26:49;17.87;;;11.70;;
15049;SDS011;7622;42.724;23.250;2022-12-11T00:29:16;18.77;;;12.13;;
15049;SDS011;7622;42.724;23.250;2022-12-11T00:31:43;20.43;;;12.80;;
15049;SDS011;7622;42.724;23.250;2022-12-11T00:34:10;18.57;;;12.80;;
15049;SDS011;7622;42.724;23.250;2022-12-11T00:36:37;21.27;;;12.30;;
15049;SDS011;7622;42.724;23.250;2022-12-11T00:39:04;16.03;;;11.87;;
15049;SDS011;7622;42.724;23.250;2022-12-11T00:41:32;17.00;;;12.30;;
15049;SDS011;7622;42.724;23.250;2022-12-11T00:43:59;20.53;;;12.63;;
15049;SDS011;7622;42.724;23.250;2022-12-11T00:46:26;16.77;;;11.63;;
15049;SDS011;7622;42.724;23.250;2022-12-11T00:48:53;14.57;;;10.93;;
15049;SDS011;7622;42.724;23.250;2022-12-11T00:51:20;17.47;;;11.60;;
15049;SDS011;7622;42.724;23.250;2022-12-11T00:53:46;13.83;;;11.37;;
15049;SDS011;7622;42.724;23.250;2022-12-11T00:56:14;18.27;;;11.70;;
15049;SDS011;7622;42.724;23.250;2022-12-11T00:58:45;16.73;;;10.70;;
15049;SDS011;7622;42.724;23.250;2022-12-11T01:01:13;12.53;;;10.20;;
15049;SDS011;7622;42.724;23.250;2022-12-11T01:03:41;18.23;;;9.47;;
15049;SDS011;7622;42.724;23.250;2022-12-11T01:06:11;20.10;;;10.07;;
15049;SDS011;7622;42.724;23.250;2022-12-11T01:08:39;15.70;;;9.00;;
15049;SDS011;7622;42.724;23.250;2022-12-11T01:11:07;16.17;;;9.10;;
15049;SDS011;7622;42.724;23.250;2022-12-11T01:13:34;15.83;;;8.90;;
15049;SDS011;7622;42.724;23.250;2022-12-11T01:16:06;15.80;;;8.50;;
15049;SDS011;7622;42.724;23.250;2022-12-11T01:18:34;16.03;;;9.03;;
15049;SDS011;7622;42.724;23.250;2022-12-11T01:21:06;12.43;;;7.97;;
15049;SDS011;7622;42.724;23.250;2022-12-11T01:23:34;13.70;;;8.53;;
15049;SDS011;7622;42.724;23.250;2022-12-11T01:26:05;16.67;;;9.47;;
15049;SDS011;7622;42.724;23.250;2022-12-11T01:28:34;11.57;;;7.63;;
15049;SDS011;7622;42.724;23.250;2022-12-11T01:31:08;5.97;;;5.33;;
15049;SDS011;7622;42.724;23.250;2022-12-11T01:33:38;4.30;;;3.20;;
15049;SDS011;7622;42.724;23.250;2022-12-11T01:36:06;7.17;;;5.30;;
15049;SDS011;7622;42.724;23.250;2022-12-11T01:38:34;7.43;;;5.03;;
15049;SDS011;7622;42.724;23.250;2022-12-11T01:41:01;6.63;;;5.13;;
15049;SDS011;7622;42.724;23.250;2022-12-11T01:43:28;9.27;;;5.70;;
15049;SDS011;7622;42.724;23.250;2022-12-11T01:45:55;10.37;;;5.20;;
15049;SDS011;7622;42.724;23.250;2022-12-11T01:48:24;6.17;;;2.53;;
15049;SDS011;7622;42.724;23.250;2022-12-11T01:50:53;3.03;;;1.00;;
15049;SDS011;7622;42.724;23.250;2022-12-11T01:53:24;3.37;;;0.50;;
15049;SDS011;7622;42.724;23.250;2022-12-11T01:55:54;0.90;;;0.30;;
15049;SDS011;7622;42.724;23.250;2022-12-11T01:58:23;1.37;;;1.27;;
15049;SDS011;7622;42.724;23.250;2022-12-11T02:00:53;0.40;;;0.30;;
15049;SDS011;7622;42.724;23.250;2022-12-11T02:03:21;0.33;;;0.30;;
15049;SDS011;7622;42.724;23.250;2022-12-11T02:05:49;1.77;;;0.33;;
15049;SDS011;7622;42.724;23.250;2022-12-11T02:08:16;0.60;;;0.23;;
15049;SDS011;7622;42.724;23.250;2022-12-11T02:10:47;0.43;;;0.40;;
15049;SDS011;7622;42.724;23.250;2022-12-11T02:13:20;0.40;;;0.40;;
15049;SDS011;7622;42.724;23.250;2022-12-11T02:15:54;1.30;;;0.20;;
15049;SDS011;7622;42.724;23.250;2022-12-11T02:18:33;5.43;;;0.50;;
15049;SDS011;7622;42.724;23.250;2022-12-11T02:21:07;0.40;;;0.40;;
15049;SDS011;7622;42.724;23.250;2022-12-11T02:23:59;2.27;;;0.47;;
15049;SDS011;7622;42.724;23.250;2022-12-11T02:29:38;0.47;;;0.30;;
15049;SDS011;7622;42.724;23.250;2022-12-11T02:32:12;0.70;;;0.47;;
15049;SDS011;7622;42.724;23.250;2022-12-11T02:34:45;1.17;;;0.70;;
15049;SDS011;7622;42.724;23.250;2022-12-11T02:37:19;1.83;;;0.60;;
15049;SDS011;7622;42.724;23.250;2022-12-11T02:39:48;1.27;;;0.57;;
15049;SDS011;7622;42.724;23.250;2022-12-11T02:42:17;1.13;;;0.63;;
15049;SDS011;7622;42.724;23.250;2022-12-11T02:44:47;3.03;;;1.40;;
15049;SDS011;7622;42.724;23.250;2022-12-11T02:47:17;1.67;;;1.00;;
15049;SDS011;7622;42.724;23.250;2022-12-11T02:49:47;0.97;;;0.93;;
15049;SDS011;7622;42.724;23.250;2022-12-11T02:52:15;4.30;;;1.00;;
15049;SDS011;7622;42.724;23.250;2022-12-11T02:54:47;1.43;;;1.10;;
15049;SDS011;7622;42.724;23.250;2022-12-11T02:57:18;1.50;;;0.90;;
15049;SDS011;7622;42.724;23.250;2022-12-11T02:59:52;1.87;;;1.00;;
15049;SDS011;7622;42.724;23.250;2022-12-11T03:02:19;1.53;;;0.60;;
15049;SDS011;7622;42.724;23.250;2022-12-11T03:04:46;1.90;;;0.87;;
15049;SDS011;7622;42.724;23.250;2022-12-11T03:07:14;3.07;;;0.97;;
15049;SDS011;7622;42.724;23.250;2022-12-11T03:09:44;1.00;;;1.00;;
15049;SDS011;7622;42.724;23.250;2022-12-11T03:12:13;3.00;;;0.67;;
15049;SDS011;7622;42.724;23.250;2022-12-11T03:14:43;1.20;;;0.90;;
15049;SDS011;7622;42.724;23.250;2022-12-11T03:17:13;0.83;;;0.50;;
15049;SDS011;7622;42.724;23.250;2022-12-11T03:19:45;0.80;;;0.60;;
15049;SDS011;7622;42.724;23.250;2022-12-11T03:22:16;0.80;;;0.67;;
15049;SDS011;7622;42.724;23.250;2022-12-11T03:24:49;2.27;;;0.97;;
15049;SDS011;7622;42.724;23.250;2022-12-11T03:27:19;2.10;;;0.47;;
15049;SDS011;7622;42.724;23.250;2022-12-11T03:29:53;1.40;;;0.63;;
15049;SDS011;7622;42.724;23.250;2022-12-11T03:32:25;1.13;;;0.77;;
15049;SDS011;7622;42.724;23.250;2022-12-11T03:34:57;0.93;;;0.93;;
15049;SDS011;7622;42.724;23.250;2022-12-11T03:37:30;1.63;;;0.80;;
15049;SDS011;7622;42.724;23.250;2022-12-11T03:40:02;2.03;;;0.80;;
15049;SDS011;7622;42.724;23.250;2022-12-11T03:42:33;4.83;;;0.97;;
15049;SDS011;7622;42.724;23.250;2022-12-11T03:45:00;2.97;;;1.13;;
15049;SDS011;7622;42.724;23.250;2022-12-11T03:47:29;1.47;;;0.80;;
15049;SDS011;7622;42.724;23.250;2022-12-11T03:49:58;4.57;;;1.27;;
15049;SDS011;7622;42.724;23.250;2022-12-11T03:52:30;1.57;;;1.00;;
15049;SDS011;7622;42.724;23.250;2022-12-11T03:54:58;3.13;;;1.00;;
15049;SDS011;7622;42.724;23.250;2022-12-11T03:57:28;2.07;;;1.20;;
15049;SDS011;7622;42.724;23.250;2022-12-11T03:59:58;0.80;;;0.80;;
15049;SDS011;7622;42.724;23.250;2022-12-11T04:02:30;2.67;;;1.20;;
15049;SDS011;7622;42.724;23.250;2022-12-11T04:04:57;2.83;;;1.07;;
15049;SDS011;7622;42.724;23.250;2022-12-11T04:07:23;1.20;;;1.10;;
15049;SDS011;7622;42.724;23.250;2022-12-11T04:09:50;3.40;;;1.20;;
15049;SDS011;7622;42.724;23.250;2022-12-11T04:12:17;3.90;;;1.40;;
15049;SDS011;7622;42.724;23.250;2022-12-11T04:14:44;1.90;;;0.93;;
15049;SDS011;7622;42.724;23.250;2022-12-11T04:17:31;1.43;;;1.17;;
15049;SDS011;7622;42.724;23.250;2022-12-11T04:20:16;1.87;;;1.30;;
15049;SDS011;7622;42.724;23.250;2022-12-11T04:23:02;0.90;;;0.90;;
15049;SDS011;7622;42.724;23.250;2022-12-11T04:25:47;4.20;;;2.17;;
15049;SDS011;7622;42.724;23.250;2022-12-11T04:28:14;2.50;;;1.60;;
15049;SDS011;7622;42.724;23.250;2022-12-11T04:30:46;4.83;;;1.53;;
15049;SDS011;7622;42.724;23.250;2022-12-11T04:33:15;3.63;;;1.67;;
15049;SDS011;7622;42.724;23.250;2022-12-11T04:35:41;3.57;;;1.80;;
15049;SDS011;7622;42.724;23.250;2022-12-11T04:38:08;2.57;;;1.53;;
15049;SDS011;7622;42.724;23.250;2022-12-11T04:40:35;3.43;;;1.10;;
15049;SDS011;7622;42.724;23.250;2022-12-11T04:43:02;4.03;;;1.37;;
15049;SDS011;7622;42.724;23.250;2022-12-11T04:45:29;2.43;;;1.17;;
15049;SDS011;7622;42.724;23.250;2022-12-11T04:47:56;5.13;;;1.70;;
15049;SDS011;7622;42.724;23.250;2022-12-11T04:50:26;4.83;;;1.53;;
15049;SDS011;7622;42.724;23.250;2022-12-11T04:52:55;1.93;;;1.40;;
15049;SDS011;7622;42.724;23.250;2022-12-11T04:55:24;3.30;;;1.40;;
15049;SDS011;7622;42.724;23.250;2022-12-11T04:57:51;5.77;;;1.60;;
15049;SDS011;7622;42.724;23.250;2022-12-11T05:00:18;2.00;;;1.33;;
15049;SDS011;7622;42.724;23.250;2022-12-11T05:02:44;3.87;;;1.60;;
15049;SDS011;7622;42.724;23.250;2022-12-11T05:05:11;2.30;;;1.20;;
15049;SDS011;7622;42.724;23.250;2022-12-11T05:07:40;4.83;;;1.63;;
15049;SDS011;7622;42.724;23.250;2022-12-11T05:10:08;4.00;;;1.37;;
15049;SDS011;7622;42.724;23.250;2022-12-11T05:12:35;1.73;;;1.40;;
15049;SDS011;7622;42.724;23.250;2022-12-11T05:15:01;3.73;;;1.80;;
15049;SDS011;7622;42.724;23.250;2022-12-11T05:17:28;5.90;;;1.83;;
15049;SDS011;7622;42.724;23.250;2022-12-11T05:19:55;5.70;;;2.63;;
15049;SDS011;7622;42.724;23.250;2022-12-11T05:22:22;3.83;;;1.60;;
15049;SDS011;7622;42.724;23.250;2022-12-11T05:24:50;3.50;;;2.40;;
15049;SDS011;7622;42.724;23.250;2022-12-11T05:27:17;6.37;;;2.40;;
15049;SDS011;7622;42.724;23.250;2022-12-11T05:29:44;4.83;;;1.90;;
15049;SDS011;7622;42.724;23.250;2022-12-11T05:32:10;5.43;;;2.03;;
15049;SDS011;7622;42.724;23.250;2022-12-11T05:34:37;5.60;;;2.30;;
15049;SDS011;7622;42.724;23.250;2022-12-11T05:37:04;4.60;;;2.37;;
15049;SDS011;7622;42.724;23.250;2022-12-11T05:39:31;10.63;;;2.33;;
15049;SDS011;7622;42.724;23.250;2022-12-11T05:41:59;16.97;;;7.23;;
15049;SDS011;7622;42.724;23.250;2022-12-11T05:44:26;5.70;;;2.10;;
15049;SDS011;7622;42.724;23.250;2022-12-11T05:46:53;4.57;;;1.63;;
15049;SDS011;7622;42.724;23.250;2022-12-11T05:49:20;4.67;;;1.93;;
15049;SDS011;7622;42.724;23.250;2022-12-11T05:51:47;4.90;;;2.40;;
15049;SDS011;7622;42.724;23.250;2022-12-11T05:54:13;7.43;;;2.17;;
15049;SDS011;7622;42.724;23.250;2022-12-11T05:56:40;3.37;;;1.73;;
15049;SDS011;7622;42.724;23.250;2022-12-11T05:59:08;4.80;;;1.80;;
15049;SDS011;7622;42.724;23.250;2022-12-11T06:01:36;4.37;;;1.80;;
15049;SDS011;7622;42.724;23.250;2022-12-11T06:04:04;8.50;;;2.27;;
15049;SDS011;7622;42.724;23.250;2022-12-11T06:06:33;6.77;;;1.93;;
15049;SDS011;7622;42.724;23.250;2022-12-11T06:09:01;3.80;;;1.90;;
15049;SDS011;7622;42.724;23.250;2022-12-11T06:11:30;2.63;;;1.70;;
15049;SDS011;7622;42.724;23.250;2022-12-11T06:13:59;11.63;;;2.20;;
15049;SDS011;7622;42.724;23.250;2022-12-11T06:16:28;6.40;;;2.10;;
15049;SDS011;7622;42.724;23.250;2022-12-11T06:18:56;7.77;;;2.13;;
15049;SDS011;7622;42.724;23.250;2022-12-11T06:21:23;6.00;;;2.40;;
15049;SDS011;7622;42.724;23.250;2022-12-11T06:23:51;5.37;;;1.90;;
15049;SDS011;7622;42.724;23.250;2022-12-11T06:26:19;4.10;;;1.77;;
15049;SDS011;7622;42.724;23.250;2022-12-11T06:28:47;8.07;;;2.10;;
15049;SDS011;7622;42.724;23.250;2022-12-11T06:31:14;6.17;;;2.20;;
15049;SDS011;7622;42.724;23.250;2022-12-11T06:33:43;6.23;;;2.60;;
15049;SDS011;7622;42.724;23.250;2022-12-11T06:36:10;8.37;;;2.50;;
15049;SDS011;7622;42.724;23.250;2022-12-11T06:38:39;10.60;;;2.83;;
15049;SDS011;7622;42.724;23.250;2022-12-11T06:41:06;6.27;;;3.23;;
15049;SDS011;7622;42.724;23.250;2022-12-11T06:43:34;8.13;;;2.00;;
15049;SDS011;7622;42.724;23.250;2022-12-11T06:46:03;5.40;;;2.33;;
15049;SDS011;7622;42.724;23.250;2022-12-11T06:48:30;10.70;;;2.47;;
15049;SDS011;7622;42.724;23.250;2022-12-11T06:50:58;4.83;;;2.00;;
15049;SDS011;7622;42.724;23.250;2022-12-11T06:53:25;3.03;;;1.80;;
15049;SDS011;7622;42.724;23.250;2022-12-11T06:55:52;12.17;;;2.70;;
15049;SDS011;7622;42.724;23.250;2022-12-11T06:58:18;4.37;;;2.63;;
15049;SDS011;7622;42.724;23.250;2022-12-11T07:00:45;7.00;;;2.60;;
15049;SDS011;7622;42.724;23.250;2022-12-11T07:03:12;6.03;;;2.60;;
15049;SDS011;7622;42.724;23.250;2022-12-11T07:05:39;6.03;;;2.37;;
15049;SDS011;7622;42.724;23.250;2022-12-11T07:08:07;7.97;;;3.13;;
15049;SDS011;7622;42.724;23.250;2022-12-11T07:10:34;4.37;;;1.97;;
15049;SDS011;7622;42.724;23.250;2022-12-11T07:13:01;6.20;;;2.13;;
15049;SDS011;7622;42.724;23.250;2022-12-11T07:15:30;4.13;;;2.30;;
15049;SDS011;7622;42.724;23.250;2022-12-11T07:17:59;5.60;;;2.10;;
15049;SDS011;7622;42.724;23.250;2022-12-11T07:20:26;11.87;;;2.40;;
15049;SDS011;7622;42.724;23.250;2022-12-11T07:22:52;5.93;;;1.97;;
15049;SDS011;7622;42.724;23.250;2022-12-11T07:25:21;7.27;;;2.20;;
15049;SDS011;7622;42.724;23.250;2022-12-11T07:27:48;6.83;;;1.70;;
15049;SDS011;7622;42.724;23.250;2022-12-11T07:30:15;6.90;;;1.93;;
15049;SDS011;7622;42.724;23.250;2022-12-11T07:32:41;3.40;;;2.23;;
15049;SDS011;7622;42.724;23.250;2022-12-11T07:35:08;5.47;;;1.80;;
15049;SDS011;7622;42.724;23.250;2022-12-11T07:37:35;5.23;;;1.80;;
15049;SDS011;7622;42.724;23.250;2022-12-11T07:40:05;3.83;;;1.87;;
15049;SDS011;7622;42.724;23.250;2022-12-11T07:42:34;3.10;;;1.90;;
15049;SDS011;7622;42.724;23.250;2022-12-11T07:45:01;4.03;;;1.70;;
15049;SDS011;7622;42.724;23.250;2022-12-11T07:47:28;3.43;;;2.10;;
15049;SDS011;7622;42.724;23.250;2022-12-11T07:49:54;3.90;;;1.67;;
15049;SDS011;7622;42.724;23.250;2022-12-11T07:52:21;2.77;;;1.70;;
15049;SDS011;7622;42.724;23.250;2022-12-11T07:54:48;5.70;;;1.73;;
15049;SDS011;7622;42.724;23.250;2022-12-11T07:57:15;6.70;;;2.50;;
15049;SDS011;7622;42.724;23.250;2022-12-11T07:59:43;5.77;;;2.20;;
15049;SDS011;7622;42.724;23.250;2022-12-11T08:02:10;5.07;;;1.73;;
15049;SDS011;7622;42.724;23.250;2022-12-11T08:04:36;3.17;;;1.60;;
15049;SDS011;7622;42.724;23.250;2022-12-11T08:07:03;4.83;;;1.70;;
15049;SDS011;7622;42.724;23.250;2022-12-11T08:09:30;6.00;;;1.80;;
15049;SDS011;7622;42.724;23.250;2022-12-11T08:11:57;2.60;;;2.13;;
15049;SDS011;7622;42.724;23.250;2022-12-11T08:14:24;5.50;;;1.40;;
15049;SDS011;7622;42.724;23.250;2022-12-11T08:16:52;3.50;;;1.53;;
15049;SDS011;7622;42.724;23.250;2022-12-11T08:19:19;4.97;;;1.80;;
15049;SDS011;7622;42.724;23.250;2022-12-11T08:21:45;6.83;;;1.73;;
15049;SDS011;7622;42.724;23.250;2022-12-11T08:24:12;6.10;;;1.97;;
15049;SDS011;7622;42.724;23.250;2022-12-11T08:26:40;3.17;;;1.60;;
15049;SDS011;7622;42.724;23.250;2022-12-11T08:29:07;5.40;;;1.57;;
15049;SDS011;7622;42.724;23.250;2022-12-11T08:34:03;2.60;;;1.40;;
15049;SDS011;7622;42.724;23.250;2022-12-11T08:36:30;3.97;;;1.77;;
15049;SDS011;7622;42.724;23.250;2022-12-11T08:38:57;1.93;;;1.30;;
15049;SDS011;7622;42.724;23.250;2022-12-11T08:41:25;4.23;;;1.53;;
15049;SDS011;7622;42.724;23.250;2022-12-11T08:43:53;3.37;;;1.60;;
15049;SDS011;7622;42.724;23.250;2022-12-11T08:46:21;3.23;;;1.70;;
15049;SDS011;7622;42.724;23.250;2022-12-11T08:48:49;3.50;;;1.70;;
15049;SDS011;7622;42.724;23.250;2022-12-11T08:51:20;3.83;;;1.30;;
15049;SDS011;7622;42.724;23.250;2022-12-11T08:53:48;1.77;;;1.00;;
15049;SDS011;7622;42.724;23.250;2022-12-11T08:56:15;3.60;;;1.60;;
15049;SDS011;7622;42.724;23.250;2022-12-11T08:58:46;4.73;;;1.40;;
15049;SDS011;7622;42.724;23.250;2022-12-11T09:01:14;1.63;;;0.93;;
15049;SDS011;7622;42.724;23.250;2022-12-11T09:03:43;3.97;;;1.30;;
15049;SDS011;7622;42.724;23.250;2022-12-11T09:06:10;2.70;;;1.30;;
15049;SDS011;7622;42.724;23.250;2022-12-11T09:08:40;1.80;;;1.50;;
15049;SDS011;7622;42.724;23.250;2022-12-11T09:11:08;2.53;;;1.47;;
15049;SDS011;7622;42.724;23.250;2022-12-11T09:13:37;1.73;;;1.63;;
15049;SDS011;7622;42.724;23.250;2022-12-11T09:16:05;2.53;;;1.47;;
15049;SDS011;7622;42.724;23.250;2022-12-11T09:18:33;5.03;;;1.57;;
15049;SDS011;7622;42.724;23.250;2022-12-11T09:21:00;2.07;;;1.70;;
15049;SDS011;7622;42.724;23.250;2022-12-11T09:23:29;2.83;;;1.50;;
15049;SDS011;7622;42.724;23.250;2022-12-11T09:25:57;3.67;;;1.50;;
15049;SDS011;7622;42.724;23.250;2022-12-11T09:28:24;2.50;;;1.80;;
15049;SDS011;7622;42.724;23.250;2022-12-11T09:30:51;2.47;;;1.70;;
15049;SDS011;7622;42.724;23.250;2022-12-11T09:33:18;3.93;;;1.90;;
15049;SDS011;7622;42.724;23.250;2022-12-11T09:35:45;3.73;;;2.03;;
15049;SDS011;7622;42.724;23.250;2022-12-11T09:38:11;4.13;;;1.90;;
15049;SDS011;7622;42.724;23.250;2022-12-11T09:40:39;2.90;;;1.43;;
15049;SDS011;7622;42.724;23.250;2022-12-11T09:43:12;1.67;;;1.57;;
15049;SDS011;7622;42.724;23.250;2022-12-11T09:45:43;3.43;;;1.50;;
15049;SDS011;7622;42.724;23.250;2022-12-11T09:48:11;3.50;;;1.40;;
15049;SDS011;7622;42.724;23.250;2022-12-11T09:50:41;1.67;;;1.50;;
15049;SDS011;7622;42.724;23.250;2022-12-11T09:53:10;3.83;;;1.50;;
15049;SDS011;7622;42.724;23.250;2022-12-11T09:55:42;2.03;;;1.30;;
15049;SDS011;7622;42.724;23.250;2022-12-11T09:58:20;2.40;;;1.47;;
15049;SDS011;7622;42.724;23.250;2022-12-11T10:00:51;3.40;;;1.60;;
15049;SDS011;7622;42.724;23.250;2022-12-11T10:03:28;1.83;;;1.20;;
15049;SDS011;7622;42.724;23.250;2022-12-11T10:06:06;4.17;;;1.20;;
15049;SDS011;7622;42.724;23.250;2022-12-11T10:08:42;2.60;;;1.20;;
15049;SDS011;7622;42.724;23.250;2022-12-11T10:11:24;1.97;;;1.20;;
15049;SDS011;7622;42.724;23.250;2022-12-11T10:14:07;4.37;;;1.30;;
15049;SDS011;7622;42.724;23.250;2022-12-11T10:16:44;1.43;;;1.30;;
15049;SDS011;7622;42.724;23.250;2022-12-11T10:19:13;1.60;;;1.20;;
15049;SDS011;7622;42.724;23.250;2022-12-11T10:21:44;1.87;;;1.10;;
15049;SDS011;7622;42.724;23.250;2022-12-11T10:24:16;2.13;;;1.10;;
15049;SDS011;7622;42.724;23.250;2022-12-11T10:26:48;1.00;;;0.87;;
15049;SDS011;7622;42.724;23.250;2022-12-11T10:29:21;2.53;;;1.77;;
15049;SDS011;7622;42.724;23.250;2022-12-11T10:31:48;1.17;;;1.07;;
15049;SDS011;7622;42.724;23.250;2022-12-11T10:34:22;0.90;;;0.90;;
15049;SDS011;7622;42.724;23.250;2022-12-11T10:36:59;3.63;;;1.77;;
15049;SDS011;7622;42.724;23.250;2022-12-11T10:39:26;2.60;;;1.40;;
15049;SDS011;7622;42.724;23.250;2022-12-11T10:41:54;1.83;;;1.73;;
15049;SDS011;7622;42.724;23.250;2022-12-11T10:44:24;2.13;;;1.40;;
15049;SDS011;7622;42.724;23.250;2022-12-11T10:47:02;3.50;;;1.40;;
15049;SDS011;7622;42.724;23.250;2022-12-11T10:49:32;2.93;;;1.47;;
15049;SDS011;7622;42.724;23.250;2022-12-11T10:52:00;2.33;;;1.70;;
15049;SDS011;7622;42.724;23.250;2022-12-11T10:54:31;2.97;;;1.60;;
15049;SDS011;7622;42.724;23.250;2022-12-11T10:57:02;3.30;;;1.30;;
15049;SDS011;7622;42.724;23.250;2022-12-11T10:59:37;3.93;;;1.50;;
15049;SDS011;7622;42.724;23.250;2022-12-11T11:02:16;3.23;;;1.80;;
15049;SDS011;7622;42.724;23.250;2022-12-11T11:04:47;9.37;;;3.17;;
15049;SDS011;7622;42.724;23.250;2022-12-11T11:07:17;4.70;;;2.60;;
15049;SDS011;7622;42.724;23.250;2022-12-11T11:09:45;5.27;;;2.23;;
15049;SDS011;7622;42.724;23.250;2022-12-11T11:12:16;3.10;;;1.90;;
15049;SDS011;7622;42.724;23.250;2022-12-11T11:14:56;3.73;;;2.57;;
15049;SDS011;7622;42.724;23.250;2022-12-11T11:17:24;2.53;;;1.60;;
15049;SDS011;7622;42.724;23.250;2022-12-11T11:19:51;4.30;;;1.90;;
15049;SDS011;7622;42.724;23.250;2022-12-11T11:22:18;2.47;;;1.50;;
15049;SDS011;7622;42.724;23.250;2022-12-11T11:24:45;2.60;;;1.50;;
15049;SDS011;7622;42.724;23.250;2022-12-11T11:27:21;3.03;;;1.73;;
15049;SDS011;7622;42.724;23.250;2022-12-11T11:29:55;3.40;;;1.27;;
15049;SDS011;7622;42.724;23.250;2022-12-11T11:32:26;4.20;;;1.80;;
15049;SDS011;7622;42.724;23.250;2022-12-11T11:35:04;2.23;;;1.60;;
15049;SDS011;7622;42.724;23.250;2022-12-11T11:37:40;1.80;;;1.30;;
15049;SDS011;7622;42.724;23.250;2022-12-11T11:40:10;1.87;;;1.20;;
15049;SDS011;7622;42.724;23.250;2022-12-11T11:42:44;3.60;;;1.70;;
15049;SDS011;7622;42.724;23.250;2022-12-11T11:45:18;1.50;;;1.10;;
15049;SDS011;7622;42.724;23.250;2022-12-11T11:47:50;2.27;;;1.20;;
15049;SDS011;7622;42.724;23.250;2022-12-11T11:50:24;3.57;;;1.60;;
15049;SDS011;7622;42.724;23.250;2022-12-11T11:52:59;6.53;;;2.17;;
15049;SDS011;7622;42.724;23.250;2022-12-11T11:55:32;1.33;;;1.23;;
15049;SDS011;7622;42.724;23.250;2022-12-11T11:58:07;1.43;;;1.40;;
15049;SDS011;7622;42.724;23.250;2022-12-11T12:00:39;3.60;;;2.70;;
15049;SDS011;7622;42.724;23.250;2022-12-11T12:03:08;1.87;;;1.60;;
15049;SDS011;7622;42.724;23.250;2022-12-11T12:05:38;1.67;;;1.57;;
15049;SDS011;7622;42.724;23.250;2022-12-11T12:08:12;1.50;;;1.40;;
15049;SDS011;7622;42.724;23.250;2022-12-11T12:10:46;1.60;;;1.50;;
15049;SDS011;7622;42.724;23.250;2022-12-11T12:13:21;3.17;;;2.17;;
15049;SDS011;7622;42.724;23.250;2022-12-11T12:15:55;2.83;;;2.57;;
15049;SDS011;7622;42.724;23.250;2022-12-11T12:18:26;1.80;;;1.70;;
15049;SDS011;7622;42.724;23.250;2022-12-11T12:21:05;1.80;;;1.70;;
15049;SDS011;7622;42.724;23.250;2022-12-11T12:26:32;2.07;;;1.53;;
15049;SDS011;7622;42.724;23.250;2022-12-11T12:29:03;1.60;;;1.50;;
15049;SDS011;7622;42.724;23.250;2022-12-11T12:31:52;2.60;;;1.50;;
15049;SDS011;7622;42.724;23.250;2022-12-11T12:34:32;3.87;;;1.80;;
15049;SDS011;7622;42.724;23.250;2022-12-11T12:37:07;1.80;;;1.70;;
15049;SDS011;7622;42.724;23.250;2022-12-11T12:39:47;1.73;;;1.63;;
15049;SDS011;7622;42.724;23.250;2022-12-11T12:42:22;1.77;;;1.60;;
15049;SDS011;7622;42.724;23.250;2022-12-11T12:44:57;1.70;;;1.60;;
15049;SDS011;7622;42.724;23.250;2022-12-11T12:47:31;1.47;;;1.37;;
15049;SDS011;7622;42.724;23.250;2022-12-11T12:50:00;1.50;;;1.43;;
15049;SDS011;7622;42.724;23.250;2022-12-11T12:52:30;2.30;;;2.00;;
15049;SDS011;7622;42.724;23.250;2022-12-11T12:55:00;2.83;;;1.70;;
15049;SDS011;7622;42.724;23.250;2022-12-11T12:57:40;4.47;;;1.50;;
15049;SDS011;7622;42.724;23.250;2022-12-11T13:00:10;2.20;;;1.50;;
15049;SDS011;7622;42.724;23.250;2022-12-11T13:02:39;1.40;;;1.30;;
15049;SDS011;7622;42.724;23.250;2022-12-11T13:05:18;1.40;;;1.30;;
15049;SDS011;7622;42.724;23.250;2022-12-11T13:07:47;1.97;;;1.20;;
15049;SDS011;7622;42.724;23.250;2022-12-11T13:10:23;1.17;;;1.13;;
15049;SDS011;7622;42.724;23.250;2022-12-11T13:12:53;1.67;;;1.07;;
15049;SDS011;7622;42.724;23.250;2022-12-11T13:15:31;1.10;;;1.00;;
15049;SDS011;7622;42.724;23.250;2022-12-11T13:18:03;1.13;;;1.07;;
15049;SDS011;7622;42.724;23.250;2022-12-11T13:20:32;3.47;;;1.37;;
15049;SDS011;7622;42.724;23.250;2022-12-11T13:23:16;1.07;;;1.07;;
15049;SDS011;7622;42.724;23.250;2022-12-11T13:25:47;1.13;;;1.03;;
15049;SDS011;7622;42.724;23.250;2022-12-11T13:28:20;1.73;;;1.00;;
15049;SDS011;7622;42.724;23.250;2022-12-11T13:30:55;3.23;;;2.90;;
15049;SDS011;7622;42.724;23.250;2022-12-11T13:33:32;2.47;;;1.53;;
15049;SDS011;7622;42.724;23.250;2022-12-11T13:36:23;2.27;;;1.20;;
15049;SDS011;7622;42.724;23.250;2022-12-11T13:38:54;1.33;;;1.23;;
15049;SDS011;7622;42.724;23.250;2022-12-11T13:41:24;1.77;;;1.67;;
15049;SDS011;7622;42.724;23.250;2022-12-11T13:43:52;1.67;;;1.57;;
15049;SDS011;7622;42.724;23.250;2022-12-11T13:46:20;1.30;;;1.20;;
15049;SDS011;7622;42.724;23.250;2022-12-11T13:48:52;1.23;;;1.23;;
15049;SDS011;7622;42.724;23.250;2022-12-11T13:51:22;2.53;;;1.23;;
15049;SDS011;7622;42.724;23.250;2022-12-11T13:54:01;1.00;;;1.00;;
15049;SDS011;7622;42.724;23.250;2022-12-11T13:56:29;1.30;;;1.30;;
15049;SDS011;7622;42.724;23.250;2022-12-11T13:58:56;1.60;;;1.50;;
15049;SDS011;7622;42.724;23.250;2022-12-11T14:01:23;2.30;;;2.20;;
15049;SDS011;7622;42.724;23.250;2022-12-11T14:03:54;3.70;;;3.40;;
15049;SDS011;7622;42.724;23.250;2022-12-11T14:06:23;3.30;;;1.80;;
15049;SDS011;7622;42.724;23.250;2022-12-11T14:08:53;2.67;;;2.47;;
15049;SDS011;7622;42.724;23.250;2022-12-11T14:11:23;3.70;;;2.63;;
15049;SDS011;7622;42.724;23.250;2022-12-11T14:13:53;1.70;;;1.60;;
15049;SDS011;7622;42.724;23.250;2022-12-11T14:16:23;2.80;;;2.03;;
15049;SDS011;7622;42.724;23.250;2022-12-11T14:18:51;1.57;;;1.33;;
15049;SDS011;7622;42.724;23.250;2022-12-11T14:21:29;1.17;;;1.17;;
15049;SDS011;7622;42.724;23.250;2022-12-11T14:23:57;0.97;;;0.97;;
15049;SDS011;7622;42.724;23.250;2022-12-11T14:26:25;1.93;;;1.40;;
15049;SDS011;7622;42.724;23.250;2022-12-11T14:28:53;1.40;;;1.17;;
15049;SDS011;7622;42.724;23.250;2022-12-11T14:31:22;1.60;;;1.50;;
15049;SDS011;7622;42.724;23.250;2022-12-11T14:33:56;1.27;;;1.17;;
15049;SDS011;7622;42.724;23.250;2022-12-11T14:36:27;2.13;;;1.30;;
15049;SDS011;7622;42.724;23.250;2022-12-11T14:38:58;1.40;;;1.30;;
15049;SDS011;7622;42.724;23.250;2022-12-11T14:41:30;1.37;;;1.27;;
15049;SDS011;7622;42.724;23.250;2022-12-11T14:44:06;1.40;;;0.90;;
15049;SDS011;7622;42.724;23.250;2022-12-11T14:46:39;1.20;;;1.10;;
15049;SDS011;7622;42.724;23.250;2022-12-11T14:49:14;2.50;;;2.10;;
15049;SDS011;7622;42.724;23.250;2022-12-11T14:51:46;1.77;;;0.70;;
15049;SDS011;7622;42.724;23.250;2022-12-11T14:54:15;1.20;;;1.10;;
15049;SDS011;7622;42.724;23.250;2022-12-11T14:56:47;0.90;;;0.90;;
15049;SDS011;7622;42.724;23.250;2022-12-11T14:59:16;1.40;;;1.30;;
15049;SDS011;7622;42.724;23.250;2022-12-11T15:01:55;1.53;;;0.70;;
15049;SDS011;7622;42.724;23.250;2022-12-11T15:04:27;1.07;;;0.97;;
15049;SDS011;7622;42.724;23.250;2022-12-11T15:06:56;2.67;;;1.17;;
15049;SDS011;7622;42.724;23.250;2022-12-11T15:09:24;1.67;;;1.00;;
15049;SDS011;7622;42.724;23.250;2022-12-11T15:11:53;1.97;;;1.87;;